Time;durP1;ratioP1;P1;durP2;ratioP2;P2;SDS_P1;SDS_P2;PMS_P1;PMS_P2;Temp;Humidity;BMP_temperature;BMP_pressure;BME280_temperature;BME280_humidity;BME280_pressure;Samples;Min_cycle;Max_cycle;Signal;HPM_P1;HPM_P2
2023/04/24 00:00:56;;;;;;;;;;;11.60;99.90;;;;;;5049997;28;19936;-79
2023/04/24 00:03:23;;;;;;;;;;;11.70;99.90;;;;;;5046115;28;19929;-80
2023/04/24 00:05:50;;;;;;;;;;;11.60;99.90;;;;;;5044099;28;20012;-80
2023/04/24 00:08:19;;;;;;;;;;;11.60;99.90;;;;;;5060281;28;19984;-81
2023/04/24 00:10:46;;;;;;;;;;;11.60;99.90;;;;;;5059295;28;19925;-81
2023/04/24 00:13:13;;;;;;;;;;;11.60;99.90;;;;;;5043415;28;19925;-81
2023/04/24 00:15:40;;;;;;;;;;;11.60;99.90;;;;;;5065758;28;19935;-81
2023/04/24 00:18:10;;;;;;;;;;;11.60;99.90;;;;;;5045800;28;19929;-80
2023/04/24 00:20:40;;;;;;;;;;;11.60;99.90;;;;;;5057285;28;19935;-81
2023/04/24 00:23:07;;;;;;;;;;;11.60;99.90;;;;;;5038537;28;19929;-81
2023/04/24 00:25:35;;;;;;;;;;;11.50;99.90;;;;;;5065141;28;20635;-82
2023/04/24 00:28:02;;;;;;;;;;;11.50;99.90;;;;;;5049005;28;19964;-82
2023/04/24 00:30:30;;;;;;;;;;;11.50;99.90;;;;;;5060950;28;19932;-83
2023/04/24 00:32:57;;;;;;;;;;;11.50;99.90;;;;;;5059726;28;19925;-82
2023/04/24 00:35:24;;;;;;;;;;;11.40;99.90;;;;;;5041568;28;19925;-82
2023/04/24 00:37:51;;;;;;;;;;;11.50;99.90;;;;;;5059416;28;19957;-82
2023/04/24 00:40:18;;;;;;;;;;;11.40;99.90;;;;;;5038925;28;19929;-82
2023/04/24 00:42:47;;;;;;;;;;;11.20;99.90;;;;;;5039857;28;19972;-82
2023/04/24 00:45:14;;;;;;;;;;;11.20;99.90;;;;;;5053727;28;20032;-82
2023/04/24 00:47:43;;;;;;;;;;;11.10;99.90;;;;;;5046742;28;19935;-79
2023/04/24 00:50:11;;;;;;;;;;;10.90;99.90;;;;;;5065352;28;19920;-81
2023/04/24 00:52:40;;;;;;;;;;;10.80;99.90;;;;;;5041328;28;20588;-81
2023/04/24 00:55:08;;;;;;;;;;;10.80;99.90;;;;;;5065374;28;20272;-81
2023/04/24 00:57:39;;;;;;;;;;;10.70;99.90;;;;;;5068218;28;19929;-81
2023/04/24 01:00:11;;;;;;;;;;;10.70;99.90;;;;;;5045856;28;19928;-80
2023/04/24 01:02:43;;;;;;;;;;;10.60;99.90;;;;;;5053230;28;19929;-79
2023/04/24 01:05:11;;;;;;;;;;;10.60;99.90;;;;;;5063152;28;19929;-80
2023/04/24 01:07:39;;;;;;;;;;;10.50;99.90;;;;;;5045067;28;20004;-80
2023/04/24 01:10:07;;;;;;;;;;;10.50;99.90;;;;;;5039572;28;19982;-80
2023/04/24 01:12:34;;;;;;;;;;;10.30;99.90;;;;;;5048305;28;19936;-80
2023/04/24 01:15:01;;;;;;;;;;;10.30;99.90;;;;;;5039155;28;19929;-81
2023/04/24 01:17:31;;;;;;;;;;;10.20;99.90;;;;;;5062901;28;19932;-80
2023/04/24 01:19:58;;;;;;;;;;;10.10;99.90;;;;;;5059341;28;19928;-80
2023/04/24 01:22:26;;;;;;;;;;;10.00;99.90;;;;;;5050624;28;19929;-80
2023/04/24 01:24:53;;;;;;;;;;;10.00;99.90;;;;;;5060082;28;19939;-79
2023/04/24 01:27:21;;;;;;;;;;;9.90;99.90;;;;;;5061535;28;19939;-79
2023/04/24 01:29:51;;;;;;;;;;;9.80;99.90;;;;;;5070086;28;19970;-79
2023/04/24 01:32:18;;;;;;;;;;;9.70;99.90;;;;;;5049369;28;19935;-79
2023/04/24 01:34:46;;;;;;;;;;;9.70;99.90;;;;;;5049103;28;19932;-79
2023/04/24 01:37:13;;;;;;;;;;;9.70;99.90;;;;;;5044147;28;20040;-80
2023/04/24 01:39:40;;;;;;;;;;;;;;;;;;5045268;28;19992;-79
2023/04/24 01:42:09;;;;;;;;;;;9.60;99.90;;;;;;5062190;28;20042;-79
2023/04/24 01:44:36;;;;;;;;;;;9.60;99.90;;;;;;5042896;28;19928;-80
2023/04/24 01:47:05;;;;;;;;;;;9.60;99.90;;;;;;5045066;28;20311;-79
2023/04/24 01:49:33;;;;;;;;;;;9.60;99.90;;;;;;5041862;28;20030;-79
2023/04/24 01:52:00;;;;;;;;;;;9.80;99.90;;;;;;5047476;28;19932;-79
2023/04/24 01:54:34;;;;;;;;;;;9.80;99.90;;;;;;5044900;28;19925;-80
2023/04/24 01:57:02;;;;;;;;;;;9.80;99.90;;;;;;5054489;28;19925;-80
2023/04/24 01:59:32;;;;;;;;;;;9.90;99.90;;;;;;5059544;28;19928;-81
2023/04/24 02:04:33;;;;;;;;;;;10.00;99.90;;;;;;5062490;28;20370;-78
2023/04/24 02:07:00;;;;;;;;;;;11.50;99.90;;;;;;5075428;28;19968;-78
2023/04/24 02:09:27;;;;;;;;;;;10.00;99.90;;;;;;5079952;28;19928;-78
2023/04/24 02:11:54;;;;;;;;;;;10.00;99.90;;;;;;5060191;28;19925;-78
2023/04/24 02:14:21;;;;;;;;;;;10.00;99.90;;;;;;5067663;28;19925;-80
2023/04/24 02:16:49;;;;;;;;;;;10.00;99.90;;;;;;5056473;28;19984;-79
2023/04/24 02:19:16;;;;;;;;;;;10.10;99.90;;;;;;5062266;28;19935;-80
2023/04/24 02:21:43;;;;;;;;;;;10.00;99.90;;;;;;5058705;28;19999;-78
2023/04/24 02:24:10;;;;;;;;;;;10.10;99.90;;;;;;5053229;28;19960;-81
2023/04/24 02:26:36;;;;;;;;;;;10.10;99.90;;;;;;5052664;28;19955;-78
2023/04/24 02:29:03;;;;;;;;;;;10.10;99.90;;;;;;5064370;28;19956;-78
2023/04/24 02:31:30;;;;;;;;;;;10.10;99.90;;;;;;5047657;28;19928;-77
2023/04/24 02:33:58;;;;;;;;;;;12.00;99.90;;;;;;5049643;28;19924;-78
2023/04/24 02:36:25;;;;;;;;;;;10.00;99.90;;;;;;5044926;28;20381;-78
2023/04/24 02:38:51;;;;;;;;;;;9.90;99.90;;;;;;5044046;28;19928;-77
2023/04/24 02:41:18;;;;;;;;;;;9.90;99.90;;;;;;5050860;28;19939;-78
2023/04/24 02:43:45;;;;;;;;;;;9.90;99.90;;;;;;5046553;28;19951;-78
2023/04/24 02:46:11;;;;;;;;;;;9.90;99.90;;;;;;5047742;28;19935;-78
2023/04/24 02:48:38;;;;;;;;;;;9.90;99.90;;;;;;5044494;28;19975;-78
2023/04/24 02:51:07;;;;;;;;;;;10.30;99.90;;;;;;5046342;28;19939;-78
2023/04/24 02:53:34;;;;;;;;;;;9.90;99.90;;;;;;5048499;28;20305;-77
2023/04/24 02:56:01;;;;;;;;;;;10.00;99.90;;;;;;5052582;28;19931;-78
2023/04/24 02:58:27;;;;;;;;;;;10.00;99.90;;;;;;5075239;28;19944;-78
2023/04/24 03:00:55;;;;;;;;;;;9.50;99.90;;;;;;5050051;28;19928;-77
2023/04/24 03:03:21;;;;;;;;;;;10.10;99.90;;;;;;5065791;28;19966;-78
2023/04/24 03:05:48;;;;;;;;;;;10.10;99.90;;;;;;5042824;28;19929;-78
2023/04/24 03:08:17;;;;;;;;;;;10.10;99.90;;;;;;5041606;28;19924;-77
2023/04/24 03:10:44;;;;;;;;;;;10.10;99.90;;;;;;5048858;28;19935;-78
2023/04/24 03:13:11;;;;;;;;;;;10.10;99.90;;;;;;5057028;28;19933;-77
2023/04/24 03:15:38;;;;;;;;;;;10.10;99.90;;;;;;5067378;28;20282;-77
2023/04/24 03:18:05;;;;;;;;;;;10.10;99.90;;;;;;5050315;28;20249;-78
2023/04/24 03:20:32;;;;;;;;;;;10.10;99.90;;;;;;5057419;28;19928;-78
2023/04/24 03:22:59;;;;;;;;;;;10.10;99.90;;;;;;5048881;28;20397;-77
2023/04/24 03:25:27;;;;;;;;;;;10.10;99.90;;;;;;5043083;28;19928;-77
2023/04/24 03:27:55;;;;;;;;;;;10.10;99.90;;;;;;5041210;28;19933;-78
2023/04/24 03:30:54;;;;;;;;;;;10.20;99.90;;;;;;5573467;22;20150;-77
2023/04/24 03:33:22;;;;;;;;;;;10.20;99.90;;;;;;5056665;28;19991;-78
2023/04/24 03:35:58;;;;;;;;;;;10.50;99.90;;;;;;5058654;28;19928;-78
2023/04/24 03:38:25;;;;;;;;;;;11.70;99.90;;;;;;5070382;28;19954;-78
2023/04/24 03:41:00;;;;;;;;;;;10.20;99.90;;;;;;5065052;28;19933;-78
2023/04/24 03:43:37;;;;;;;;;;;10.20;99.90;;;;;;5081950;22;19962;-78
2023/04/24 03:46:05;;;;;;;;;;;10.20;99.90;;;;;;5067486;28;19989;-79
2023/04/24 03:48:35;;;;;;;;;;;10.20;99.90;;;;;;5073126;28;20399;-79
2023/04/24 03:51:04;;;;;;;;;;;10.20;99.90;;;;;;5061675;28;19930;-78
2023/04/24 03:53:32;;;;;;;;;;;10.20;99.90;;;;;;5062652;28;19931;-78
2023/04/24 03:56:01;;;;;;;;;;;10.20;99.90;;;;;;5068287;28;19928;-78
2023/04/24 03:58:29;;;;;;;;;;;10.20;99.90;;;;;;5070678;28;19946;-79
2023/04/24 04:00:57;;;;;;;;;;;10.20;99.90;;;;;;5072789;28;19946;-78
2023/04/24 04:03:46;;;;;;;;;;;10.20;99.90;;;;;;5077603;28;19960;-80
2023/04/24 04:06:14;;;;;;;;;;;10.30;99.90;;;;;;5073366;28;19928;-78
2023/04/24 04:08:42;;;;;;;;;;;10.30;99.90;;;;;;5068714;28;19932;-78
2023/04/24 04:11:10;;;;;;;;;;;9.80;99.90;;;;;;5081291;28;19928;-80
2023/04/24 04:13:37;;;;;;;;;;;10.30;99.90;;;;;;5072805;28;20015;-79
2023/04/24 04:16:04;;;;;;;;;;;10.20;99.90;;;;;;5068927;28;20401;-80
2023/04/24 04:18:31;;;;;;;;;;;10.20;99.90;;;;;;5080784;28;19932;-79
2023/04/24 04:21:01;;;;;;;;;;;10.20;99.90;;;;;;5092470;28;19978;-78
2023/04/24 04:23:28;;;;;;;;;;;10.20;99.90;;;;;;5074240;28;20459;-80
2023/04/24 04:26:19;;;;;;;;;;;10.20;99.90;;;;;;5092684;28;19928;-80
2023/04/24 04:29:00;;;;;;;;;;;10.20;99.90;;;;;;5104293;28;19973;-80
2023/04/24 04:31:29;;;;;;;;;;;10.20;99.90;;;;;;5076661;28;19924;-80
2023/04/24 04:33:58;;;;;;;;;;;10.20;99.90;;;;;;5077237;28;20671;-83
2023/04/24 04:36:25;;;;;;;;;;;10.20;99.90;;;;;;5082546;28;19935;-82
2023/04/24 04:39:00;;;;;;;;;;;10.20;99.90;;;;;;5071345;28;19959;-80
2023/04/24 04:41:52;;;;;;;;;;;10.20;99.90;;;;;;5081559;28;19920;-82
2023/04/24 04:44:21;;;;;;;;;;;10.20;99.90;;;;;;5065891;28;19936;-82
2023/04/24 04:46:48;;;;;;;;;;;10.20;99.90;;;;;;5067979;28;20631;-80
2023/04/24 04:49:35;;;;;;;;;;;10.30;99.90;;;;;;5088382;28;19924;-81
2023/04/24 04:52:04;;;;;;;;;;;10.20;99.90;;;;;;5073313;28;20015;-84
2023/04/24 04:54:32;;;;;;;;;;;10.30;99.90;;;;;;5077130;28;19924;-82
2023/04/24 04:57:01;;;;;;;;;;;10.30;99.90;;;;;;5083433;28;19966;-82
2023/04/24 04:59:31;;;;;;;;;;;10.20;99.90;;;;;;5082453;28;19950;-81
2023/04/24 05:02:05;;;;;;;;;;;10.30;99.90;;;;;;5080336;28;19924;-82
2023/04/24 05:04:32;;;;;;;;;;;10.30;99.90;;;;;;5094173;28;19974;-86
2023/04/24 05:07:00;;;;;;;;;;;10.20;99.90;;;;;;5070749;28;19938;-86
2023/04/24 05:09:33;;;;;;;;;;;10.20;99.90;;;;;;5075484;28;20119;-84
2023/04/24 05:12:08;;;;;;;;;;;10.20;99.90;;;;;;5084376;28;19951;-84
2023/04/24 05:14:43;;;;;;;;;;;10.10;99.90;;;;;;5085406;28;19936;-84
2023/04/24 05:17:12;;;;;;;;;;;10.10;99.90;;;;;;5094634;28;19936;-84
2023/04/24 05:19:41;;;;;;;;;;;10.10;99.90;;;;;;5078158;28;19928;-85
2023/04/24 05:22:09;;;;;;;;;;;10.00;99.90;;;;;;5080554;28;19931;-84
2023/04/24 05:24:46;;;;;;;;;;;10.00;99.90;;;;;;5082290;28;19935;-82
2023/04/24 05:27:36;;;;;;;;;;;9.90;99.90;;;;;;5102137;28;19919;-84
2023/04/24 05:30:15;;;;;;;;;;;9.80;99.90;;;;;;5081652;28;19913;-84
2023/04/24 05:32:43;;;;;;;;;;;9.60;99.90;;;;;;5081228;28;19935;-82
2023/04/24 05:35:10;;;;;;;;;;;9.60;99.90;;;;;;5089697;28;19924;-81
2023/04/24 05:37:37;;;;;;;;;;;9.50;99.90;;;;;;5073269;28;19975;-82
2023/04/24 05:40:06;;;;;;;;;;;9.50;99.90;;;;;;5087645;28;19928;-82
2023/04/24 05:42:41;;;;;;;;;;;9.50;99.90;;;;;;5088818;28;20849;-84
2023/04/24 05:45:16;;;;;;;;;;;9.60;99.90;;;;;;5068591;28;19928;-80
2023/04/24 05:47:44;;;;;;;;;;;9.60;99.90;;;;;;5084339;28;19975;-80
2023/04/24 05:50:12;;;;;;;;;;;9.60;99.90;;;;;;5043446;28;19928;-82
2023/04/24 05:52:39;;;;;;;;;;;9.00;99.90;;;;;;5077413;28;19924;-81
2023/04/24 05:55:17;;;;;;;;;;;9.70;99.90;;;;;;5073027;28;19929;-81
2023/04/24 05:57:47;;;;;;;;;;;9.80;99.90;;;;;;5077324;28;19932;-82
2023/04/24 06:00:16;;;;;;;;;;;9.80;99.90;;;;;;5068381;28;19932;-81
2023/04/24 06:02:51;;;;;;;;;;;9.90;99.90;;;;;;5078289;28;19956;-80
2023/04/24 06:05:18;;;;;;;;;;;9.90;99.90;;;;;;5079705;28;19978;-80
2023/04/24 06:07:45;;;;;;;;;;;10.00;99.90;;;;;;5079632;28;19925;-79
2023/04/24 06:10:12;;;;;;;;;;;10.00;99.90;;;;;;5091972;28;19979;-81
2023/04/24 06:12:44;;;;;;;;;;;10.00;99.90;;;;;;5099216;28;19928;-80
2023/04/24 06:15:19;;;;;;;;;;;10.00;99.90;;;;;;5063701;28;19935;-80
2023/04/24 06:18:07;;;;;;;;;;;9.90;99.90;;;;;;5080486;28;19964;-81
2023/04/24 06:20:35;;;;;;;;;;;10.00;99.90;;;;;;5073353;28;19924;-82
2023/04/24 06:23:03;;;;;;;;;;;9.90;99.90;;;;;;5067962;28;19975;-79
2023/04/24 06:25:33;;;;;;;;;;;9.90;99.90;;;;;;5076399;28;20327;-80
2023/04/24 06:28:00;;;;;;;;;;;9.90;99.90;;;;;;5079922;28;19936;-80
2023/04/24 06:30:29;;;;;;;;;;;9.90;99.90;;;;;;5072273;28;20072;-79
2023/04/24 06:32:58;;;;;;;;;;;9.90;99.90;;;;;;5055083;28;19990;-79
2023/04/24 06:35:26;;;;;;;;;;;9.90;99.90;;;;;;5056737;28;19934;-79
2023/04/24 06:37:53;;;;;;;;;;;9.80;99.90;;;;;;5075863;28;19928;-79
2023/04/24 06:40:20;;;;;;;;;;;9.80;99.90;;;;;;5069038;28;19933;-78
2023/04/24 06:42:47;;;;;;;;;;;9.80;99.90;;;;;;5068165;28;19935;-78
2023/04/24 06:45:15;;;;;;;;;;;9.80;99.90;;;;;;5071943;28;19928;-78
2023/04/24 06:47:46;;;;;;;;;;;9.80;99.90;;;;;;5064258;28;19969;-78
2023/04/24 06:50:14;;;;;;;;;;;9.70;99.90;;;;;;5065081;28;20308;-77
2023/04/24 06:52:41;;;;;;;;;;;10.90;99.90;;;;;;5086224;28;19935;-79
2023/04/24 06:55:10;;;;;;;;;;;9.80;99.90;;;;;;5075679;28;20011;-78
2023/04/24 06:57:36;;;;;;;;;;;9.80;99.90;;;;;;5070857;28;19971;-79
2023/04/24 07:00:04;;;;;;;;;;;9.90;99.90;;;;;;5071107;28;20641;-78
2023/04/24 07:02:32;;;;;;;;;;;10.30;99.90;;;;;;5068722;28;20487;-79
2023/04/24 07:04:59;;;;;;;;;;;10.30;99.90;;;;;;5074619;28;20319;-79
2023/04/24 07:07:28;;;;;;;;;;;10.40;99.90;;;;;;5074438;28;19925;-79
2023/04/24 07:09:56;;;;;;;;;;;10.40;99.90;;;;;;5071762;28;20023;-79
2023/04/24 07:12:23;;;;;;;;;;;10.40;99.90;;;;;;5058961;28;19940;-79
2023/04/24 07:14:51;;;;;;;;;;;10.40;99.90;;;;;;5070622;28;19928;-79
2023/04/24 07:17:18;;;;;;;;;;;10.40;99.90;;;;;;5073575;28;20363;-78
2023/04/24 07:19:45;;;;;;;;;;;10.30;99.90;;;;;;5070819;28;19928;-79
2023/04/24 07:22:16;;;;;;;;;;;10.20;99.90;;;;;;5066209;28;19970;-78
2023/04/24 07:24:44;;;;;;;;;;;10.20;99.90;;;;;;5060936;28;19993;-78
2023/04/24 07:27:12;;;;;;;;;;;10.10;99.90;;;;;;5069202;28;19943;-77
2023/04/24 07:29:39;;;;;;;;;;;10.10;99.90;;;;;;5063402;28;19931;-78
2023/04/24 07:32:07;;;;;;;;;;;10.10;99.90;;;;;;5071292;28;19929;-77
2023/04/24 07:34:34;;;;;;;;;;;10.10;99.90;;;;;;5061790;28;20396;-78
2023/04/24 07:37:02;;;;;;;;;;;10.20;99.90;;;;;;5078460;28;19924;-78
2023/04/24 07:39:30;;;;;;;;;;;10.30;99.90;;;;;;5069409;28;19968;-78
2023/04/24 07:41:59;;;;;;;;;;;10.30;99.90;;;;;;5056808;28;19928;-78
2023/04/24 07:44:26;;;;;;;;;;;10.30;99.90;;;;;;5079353;28;19993;-78
2023/04/24 07:46:53;;;;;;;;;;;10.20;99.90;;;;;;5071347;28;19932;-78
2023/04/24 07:49:20;;;;;;;;;;;10.20;99.90;;;;;;5073219;28;19928;-79
2023/04/24 07:51:47;;;;;;;;;;;10.40;99.90;;;;;;5064801;28;19936;-79
2023/04/24 07:54:15;;;;;;;;;;;10.30;99.90;;;;;;5066612;28;19929;-80
2023/04/24 07:56:42;;;;;;;;;;;10.20;99.90;;;;;;5087585;28;20239;-79
2023/04/24 07:59:11;;;;;;;;;;;10.10;99.90;;;;;;5057667;28;20353;-79
2023/04/24 08:01:38;;;;;;;;;;;10.00;99.90;;;;;;5078977;28;20433;-79
2023/04/24 08:04:05;;;;;;;;;;;9.90;99.90;;;;;;5067309;28;20319;-78
2023/04/24 08:06:33;;;;;;;;;;;9.80;99.90;;;;;;5081627;28;19933;-78
2023/04/24 08:09:00;;;;;;;;;;;9.70;99.90;;;;;;5083045;28;19954;-79
2023/04/24 08:11:28;;;;;;;;;;;9.70;99.90;;;;;;5092380;28;19928;-78
2023/04/24 08:13:55;;;;;;;;;;;8.70;99.90;;;;;;5060498;28;20304;-78
2023/04/24 08:16:24;;;;;;;;;;;9.70;99.90;;;;;;5070772;28;19936;-78
2023/04/24 08:18:51;;;;;;;;;;;9.70;99.90;;;;;;5068111;28;20367;-78
2023/04/24 08:21:23;;;;;;;;;;;9.70;99.90;;;;;;5087877;28;19927;-78
2023/04/24 08:23:52;;;;;;;;;;;9.70;99.90;;;;;;5095286;28;19932;-79
2023/04/24 08:26:20;;;;;;;;;;;9.60;99.90;;;;;;5083470;28;19951;-78
2023/04/24 08:28:50;;;;;;;;;;;9.80;99.90;;;;;;5093977;28;19931;-79
2023/04/24 08:31:19;;;;;;;;;;;9.80;99.90;;;;;;5065870;28;19924;-78
2023/04/24 08:33:49;;;;;;;;;;;9.90;99.90;;;;;;5078510;28;19924;-78
2023/04/24 08:36:16;;;;;;;;;;;10.00;99.90;;;;;;5062157;28;19928;-78
2023/04/24 08:38:43;;;;;;;;;;;10.10;99.90;;;;;;5062008;28;19996;-77
2023/04/24 08:41:10;;;;;;;;;;;10.20;99.90;;;;;;5072412;28;19928;-77
2023/04/24 08:43:38;;;;;;;;;;;10.30;99.90;;;;;;5081088;28;19924;-76
2023/04/24 08:46:06;;;;;;;;;;;10.40;99.90;;;;;;5096016;28;20023;-76
2023/04/24 08:48:33;;;;;;;;;;;10.40;99.90;;;;;;5078139;28;19968;-77
2023/04/24 08:51:03;;;;;;;;;;;10.50;99.90;;;;;;5078997;28;20014;-77
2023/04/24 08:53:31;;;;;;;;;;;10.70;99.90;;;;;;5083995;28;19939;-77
2023/04/24 08:55:59;;;;;;;;;;;10.60;99.90;;;;;;5073300;28;19928;-76
2023/04/24 08:58:26;;;;;;;;;;;10.50;99.90;;;;;;5065015;28;19928;-76
2023/04/24 09:00:55;;;;;;;;;;;10.50;99.90;;;;;;5072100;28;20872;-77
2023/04/24 09:03:22;;;;;;;;;;;10.30;99.90;;;;;;5085404;28;19939;-76
2023/04/24 09:05:50;;;;;;;;;;;10.20;99.90;;;;;;5083456;28;19986;-78
2023/04/24 09:08:19;;;;;;;;;;;10.10;99.90;;;;;;5071139;28;19947;-77
2023/04/24 09:10:46;;;;;;;;;;;10.10;99.90;;;;;;5077051;28;20310;-78
2023/04/24 09:13:13;;;;;;;;;;;10.10;99.90;;;;;;5074490;28;19912;-77
2023/04/24 09:15:41;;;;;;;;;;;10.10;99.90;;;;;;5086591;28;19931;-78
2023/04/24 09:18:08;;;;;;;;;;;10.20;99.90;;;;;;5100168;28;19948;-79
2023/04/24 09:20:36;;;;;;;;;;;10.20;99.90;;;;;;5086398;28;19985;-77
2023/04/24 09:23:03;;;;;;;;;;;10.20;99.90;;;;;;5071871;28;19929;-77
2023/04/24 09:25:35;;;;;;;30.53;7.03;;;;;;;;;;5065582;28;20481;-77
2023/04/24 09:28:03;;;;;;;28.53;6.57;;;10.20;99.90;;;;;;5064949;28;20230;-77
2023/04/24 09:30:31;;;;;;;29.97;7.90;;;10.20;99.90;;;;;;5079878;28;20208;-78
2023/04/24 09:33:16;;;;;;;33.87;8.10;;;10.20;99.90;;;;;;5076737;28;20326;-77
2023/04/24 09:35:55;;;;;;;30.53;7.43;;;10.30;99.90;;;;;;5087275;28;20208;-77
2023/04/24 09:38:32;;;;;;;33.60;8.80;;;10.10;99.90;;;;;;5074760;28;20611;-77
2023/04/24 09:41:03;;;;;;;31.40;8.80;;;10.10;99.90;;;;;;5068339;28;20239;-76
2023/04/24 09:43:31;;;;;;;33.60;8.47;;;10.00;99.90;;;;;;5068022;28;20790;-75
2023/04/24 09:45:59;;;;;;;25.27;6.47;;;10.00;99.90;;;;;;5073410;28;20203;-76
2023/04/24 09:48:34;;;;;;;29.30;6.90;;;10.00;99.90;;;;;;5073789;28;20216;-74
2023/04/24 09:51:03;;;;;;;36.43;8.63;;;9.90;99.90;;;;;;5072734;28;20222;-74
2023/04/24 09:53:30;;;;;;;36.13;8.57;;;9.90;99.90;;;;;;5073196;28;20288;-74
2023/04/24 09:56:09;;;;;;;29.00;8.80;;;9.80;99.90;;;;;;5053969;28;20258;-75
2023/04/24 09:58:37;;;;;;;36.77;9.27;;;9.80;99.90;;;;;;5071486;28;20242;-75
2023/04/24 10:01:05;;;;;;;28.87;8.03;;;9.90;99.90;;;;;;5076176;28;20217;-75
2023/04/24 10:03:33;;;;;;;38.07;10.13;;;9.90;99.90;;;;;;5061808;28;20247;-75
2023/04/24 10:06:08;;;;;;;31.10;8.47;;;9.80;99.90;;;;;;5055908;28;20280;-74
2023/04/24 10:08:36;;;;;;;30.60;6.83;;;10.00;99.90;;;;;;5063773;28;20219;-74
2023/04/24 10:11:05;;;;;;;27.13;7.40;;;10.20;99.90;;;;;;5081626;28;20190;-75
2023/04/24 10:13:33;;;;;;;21.77;6.63;;;10.40;99.90;;;;;;5074062;28;20227;-76
2023/04/24 10:16:03;;;;;;;26.60;6.10;;;10.50;99.90;;;;;;5075328;28;20290;-75
2023/04/24 10:18:32;;;;;;;30.10;7.13;;;10.80;99.90;;;;;;5074645;28;20231;-76
2023/04/24 10:21:02;;;;;;;29.73;6.93;;;10.90;99.90;;;;;;5075223;28;20216;-76
2023/04/24 10:23:31;;;;;;;28.00;6.90;;;11.10;99.90;;;;;;5072382;28;20241;-75
2023/04/24 10:25:58;;;;;;;24.23;6.50;;;11.10;99.90;;;;;;5066674;28;20209;-75
2023/04/24 10:28:29;;;;;;;24.63;5.90;;;11.20;99.90;;;;;;5073348;28;20368;-77
2023/04/24 10:30:56;;;;;;;45.30;9.73;;;11.30;99.90;;;;;;5074035;28;20209;-76
2023/04/24 10:33:25;;;;;;;28.33;6.67;;;11.30;99.90;;;;;;5075771;28;20234;-75
2023/04/24 10:35:52;;;;;;;33.77;7.20;;;11.30;99.90;;;;;;5092466;28;20216;-76
2023/04/24 10:38:25;;;;;;;29.40;7.33;;;11.30;99.90;;;;;;5075299;28;20189;-75
2023/04/24 10:40:58;;;;;;;29.73;6.87;;;11.30;99.90;;;;;;5064563;28;20220;-75
2023/04/24 10:43:27;;;;;;;31.80;6.97;;;11.40;99.90;;;;;;5073464;28;20225;-76
2023/04/24 10:46:05;;;;;;;25.90;5.70;;;11.40;99.90;;;;;;5075674;28;20694;-76
2023/04/24 10:48:33;;;;;;;30.00;6.70;;;11.50;99.90;;;;;;5076882;28;20206;-76
2023/04/24 10:51:00;;;;;;;36.07;7.63;;;11.50;99.90;;;;;;5097306;28;20202;-76
2023/04/24 10:53:30;;;;;;;32.93;6.87;;;11.50;99.90;;;;;;5077932;28;20237;-75
2023/04/24 10:56:05;;;;;;;23.30;5.83;;;11.60;99.90;;;;;;5075159;28;20202;-76
2023/04/24 10:58:44;;;;;;;27.13;6.90;;;12.00;99.90;;;;;;5073745;28;20218;-76
2023/04/24 11:01:25;;;;;;;33.20;7.23;;;12.10;99.90;;;;;;5086057;28;20236;-76
2023/04/24 11:03:56;;;;;;;26.10;6.17;;;12.30;99.90;;;;;;5073635;28;20227;-76
2023/04/24 11:06:32;;;;;;;33.37;7.23;;;12.60;99.90;;;;;;5070615;28;20203;-76
2023/04/24 11:09:05;;;;;;;25.37;6.50;;;12.90;99.90;;;;;;5069975;28;20779;-77
2023/04/24 11:11:34;;;;;;;35.33;8.43;;;13.20;99.90;;;;;;5054247;28;20215;-76
2023/04/24 11:14:09;;;;;;;31.43;7.93;;;13.30;99.90;;;;;;5054380;28;20269;-76
2023/04/24 11:16:47;;;;;;;25.87;6.37;;;13.40;99.90;;;;;;5082528;28;20310;-76
2023/04/24 11:19:25;;;;;;;22.07;5.90;;;13.00;99.90;;;;;;5082872;28;20211;-76
2023/04/24 11:22:00;;;;;;;31.40;6.93;;;12.90;99.90;;;;;;5081650;28;20206;-75
2023/04/24 11:24:41;;;;;;;21.47;4.93;;;12.90;99.90;;;;;;5101143;28;20209;-77
2023/04/24 11:27:24;;;;;;;24.43;5.43;;;13.70;99.90;;;;;;5074919;28;20216;-82
2023/04/24 11:30:02;;;;;;;18.40;4.90;;;12.90;99.90;;;;;;5074651;28;20576;-81
2023/04/24 11:32:32;;;;;;;21.77;5.73;;;12.60;99.90;;;;;;5082935;28;20242;-82
2023/04/24 11:35:03;;;;;;;23.43;5.50;;;12.60;99.90;;;;;;5085988;28;20287;-80
2023/04/24 11:37:35;;;;;;;25.00;5.83;;;12.50;99.90;;;;;;5077042;28;20287;-81
2023/04/24 11:40:05;;;;;;;18.90;4.83;;;12.60;99.90;;;;;;5082269;28;20691;-81
2023/04/24 11:42:39;;;;;;;22.37;6.00;;;12.90;99.90;;;;;;5102376;28;20546;-80
2023/04/24 11:45:21;;;;;;;17.83;4.83;;;13.30;99.90;;;;;;5062739;28;20216;-83
2023/04/24 11:47:52;;;;;;;22.27;5.30;;;13.30;99.90;;;;;;5061245;28;20207;-78
2023/04/24 11:50:25;;;;;;;24.50;5.80;;;13.60;99.90;;;;;;5075257;28;20327;-82
2023/04/24 11:52:53;;;;;;;18.73;5.43;;;13.80;99.90;;;;;;5078609;28;20228;-84
2023/04/24 11:55:42;;;;;;;22.00;5.33;;;14.00;99.90;;;;;;5079390;28;20219;-82
2023/04/24 11:58:09;;;;;;;17.97;5.17;;;14.00;99.90;;;;;;5071714;28;20235;-83
2023/04/24 12:00:39;;;;;;;18.43;5.03;;;13.70;99.90;;;;;;5074173;28;20276;-84
2023/04/24 12:03:09;;;;;;;21.97;4.90;;;13.30;99.90;;;;;;5093087;28;20246;-83
2023/04/24 12:05:39;;;;;;;26.10;6.23;;;12.90;99.90;;;;;;5070506;28;20287;-83
2023/04/24 12:08:10;;;;;;;18.53;4.67;;;12.60;99.90;;;;;;5077906;28;20209;-83
2023/04/24 12:10:40;;;;;;;18.17;4.60;;;12.40;99.90;;;;;;5068681;28;20208;-82
2023/04/24 12:13:15;;;;;;;15.47;4.13;;;12.30;99.90;;;;;;5067870;28;20296;-83
2023/04/24 12:15:53;;;;;;;26.87;5.13;;;12.20;99.90;;;;;;5072477;28;20333;-82
2023/04/24 12:21:28;;;;;;;18.87;4.47;;;12.20;99.90;;;;;;5080242;28;20230;-84
2023/04/24 12:24:04;;;;;;;18.03;4.33;;;12.20;99.90;;;;;;5082353;28;20226;-83
2023/04/24 12:26:36;;;;;;;20.23;4.30;;;12.30;99.90;;;;;;5076266;28;20217;-83
2023/04/24 12:29:09;;;;;;;14.67;3.80;;;12.30;99.90;;;;;;5067926;28;20296;-82
2023/04/24 12:31:41;;;;;;;16.77;4.13;;;12.50;99.90;;;;;;5095976;28;20820;-83
2023/04/24 12:34:21;;;;;;;21.93;5.67;;;12.60;99.90;;;;;;5079527;28;20232;-83
2023/04/24 12:36:51;;;;;;;16.97;4.10;;;12.80;99.90;;;;;;5072051;28;20254;-82
2023/04/24 12:39:24;;;;;;;20.73;4.70;;;12.90;99.90;;;;;;5063784;28;20333;-83
2023/04/24 12:41:59;;;;;;;23.60;4.77;;;13.20;99.90;;;;;;5075430;28;20995;-83
2023/04/24 12:44:34;;;;;;;18.20;4.37;;;13.30;99.90;;;;;;5080008;28;20215;-83
2023/04/24 12:47:04;;;;;;;18.47;4.17;;;13.40;99.90;;;;;;5077270;28;20568;-82
2023/04/24 12:49:32;;;;;;;18.07;4.07;;;13.40;99.90;;;;;;5076413;28;20178;-81
2023/04/24 12:52:01;;;;;;;18.43;4.27;;;13.30;99.90;;;;;;5073385;28;20694;-76
2023/04/24 12:54:34;;;;;;;22.90;5.43;;;13.40;99.90;;;;;;5055019;28;20205;-76
2023/04/24 12:57:02;;;;;;;20.93;4.47;;;13.40;99.90;;;;;;5070627;28;20287;-76
2023/04/24 12:59:32;;;;;;;15.27;3.67;;;13.60;99.90;;;;;;5063551;28;20224;-78
2023/04/24 13:02:09;;;;;;;20.93;4.13;;;13.20;99.90;;;;;;5073787;28;20228;-79
2023/04/24 13:04:39;;;;;;;18.23;4.63;;;13.20;99.90;;;;;;5094371;28;20261;-78
2023/04/24 13:07:08;;;;;;;16.60;4.00;;;12.30;99.90;;;;;;5070035;28;20230;-78
2023/04/24 13:09:36;;;;;;;17.40;4.30;;;12.40;99.90;;;;;;5066619;28;20049;-78
2023/04/24 13:12:05;;;;;;;23.57;4.87;;;11.90;99.90;;;;;;5079968;28;20208;-77
2023/04/24 13:14:33;;;;;;;21.33;4.57;;;11.90;99.90;;;;;;5074884;28;20287;-77
2023/04/24 13:17:01;;;;;;;;;;;12.00;99.90;;;;;;5067943;28;20499;-76
2023/04/24 13:19:29;;;;;;;;;;;11.80;99.90;;;;;;5060357;28;19936;-76
2023/04/24 13:21:59;;;;;;;;;;;11.70;99.90;;;;;;5059261;28;19956;-77
2023/04/24 13:24:26;;;;;;;;;;;11.70;99.90;;;;;;5057918;28;19978;-77
2023/04/24 13:26:56;;;;;;;;;;;11.80;99.90;;;;;;5060643;28;19932;-77
2023/04/24 13:29:24;;;;;;;;;;;11.80;99.90;;;;;;5060562;28;20006;-78
2023/04/24 13:31:54;;;;;;;;;;;12.10;99.90;;;;;;5060355;28;19920;-77
2023/04/24 13:34:23;;;;;;;;;;;12.10;99.90;;;;;;5059689;28;20394;-77
2023/04/24 13:36:54;;;;;;;;;;;12.60;99.90;;;;;;5064461;28;19931;-78
2023/04/24 13:39:25;;;;;;;;;;;12.80;99.90;;;;;;5080202;28;19925;-77
2023/04/24 13:42:05;;;;;;;;;;;13.30;99.90;;;;;;5081371;28;20027;-78
2023/04/24 13:44:33;;;;;;;;;;;13.40;99.90;;;;;;5093232;28;19962;-77
2023/04/24 13:47:08;;;;;;;16.87;3.87;;;13.50;99.90;;;;;;5073702;28;20282;-85
2023/04/24 13:49:38;;;;;;;17.83;4.30;;;13.50;99.90;;;;;;5084649;28;20215;-85
2023/04/24 13:52:07;;;;;;;18.03;3.87;;;13.50;99.90;;;;;;5102960;28;20231;-85
2023/04/24 13:54:37;;;;;;;22.57;4.30;;;13.50;99.90;;;;;;5087891;28;20207;-84
2023/04/24 13:57:05;;;;;;;17.57;3.97;;;13.40;99.90;;;;;;5074831;28;20205;-78
2023/04/24 13:59:33;;;;;;;13.33;3.30;;;13.40;99.90;;;;;;5081743;28;20343;-78
2023/04/24 14:02:01;;;;;;;20.40;4.03;;;13.40;99.90;;;;;;5083225;28;20228;-79
2023/04/24 14:04:29;;;;;;;17.40;3.97;;;;;;;;;;5086798;28;20203;-76
2023/04/24 14:06:57;;;;;;;15.77;3.60;;;13.60;99.90;;;;;;5083143;28;20216;-78
2023/04/24 14:09:25;;;;;;;19.23;4.43;;;13.90;99.90;;;;;;5086326;28;20263;-78